createdAt,value
2022-07-27T00:00:00.016Z,36.66
2022-07-27T00:01:11.860Z,36.57
2022-07-27T00:02:20.048Z,36.80
2022-07-27T00:03:29.599Z,36.68
2022-07-27T00:04:40.325Z,36.78
2022-07-27T00:05:49.804Z,36.78
2022-07-27T00:07:00.805Z,36.65
2022-07-27T00:08:11.191Z,36.62
2022-07-27T00:09:29.455Z,36.81
2022-07-27T00:10:57.520Z,36.69
2022-07-27T00:12:23.450Z,36.77
2022-07-27T00:13:33.333Z,36.53
2022-07-27T00:14:41.131Z,36.43
2022-07-27T00:15:48.718Z,36.56
2022-07-27T00:16:56.692Z,36.60
2022-07-27T00:18:04.094Z,36.77
2022-07-27T00:19:12.158Z,36.76
2022-07-27T00:20:27.041Z,36.49
2022-07-27T00:21:44.827Z,36.59
2022-07-27T00:22:57.032Z,36.45
2022-07-27T00:24:04.359Z,36.65
2022-07-27T00:25:12.324Z,36.56
2022-07-27T00:26:27.022Z,36.61
2022-07-27T00:27:35.310Z,36.53
2022-07-27T00:28:42.787Z,36.37
2022-07-27T00:29:51.642Z,36.43
2022-07-27T00:31:02.166Z,36.50
2022-07-27T00:32:12.827Z,36.39
2022-07-27T00:33:20.039Z,36.42
2022-07-27T00:34:27.348Z,36.39
2022-07-27T00:35:37.302Z,36.42
2022-07-27T00:36:46.004Z,36.60
2022-07-27T00:37:59.142Z,36.61
2022-07-27T00:39:10.002Z,36.51
2022-07-27T00:40:17.770Z,36.35
2022-07-27T00:41:28.276Z,36.18
2022-07-27T00:42:36.686Z,36.19
2022-07-27T00:43:59.583Z,36.38
2022-07-27T00:45:08.003Z,36.27
2022-07-27T00:46:15.409Z,36.09
2022-07-27T00:47:22.910Z,36.04
2022-07-27T00:48:31.843Z,36.01
2022-07-27T00:49:42.641Z,35.82
2022-07-27T00:50:51.679Z,35.98
2022-07-27T00:52:01.526Z,35.94
2022-07-27T00:53:27.547Z,35.91
2022-07-27T00:54:41.828Z,35.95
2022-07-27T00:55:55.790Z,35.92
2022-07-27T00:57:07.120Z,35.96
2022-07-27T00:58:18.733Z,35.88
2022-07-27T00:59:28.323Z,35.78
2022-07-27T01:00:39.337Z,35.89
2022-07-27T01:01:47.674Z,36.05
2022-07-27T01:02:57.450Z,35.99
2022-07-27T01:04:07.603Z,35.96
2022-07-27T01:10:14.462Z,35.67
2022-07-27T01:11:29.411Z,35.77
2022-07-27T01:12:46.202Z,35.86
2022-07-27T01:13:55.253Z,35.75
2022-07-27T01:15:07.492Z,35.79
2022-07-27T01:18:01.931Z,35.70
2022-07-27T01:19:14.475Z,35.64
2022-07-27T01:20:26.144Z,35.57
2022-07-27T01:21:39.958Z,35.43
2022-07-27T01:22:48.755Z,35.14
2022-07-27T01:23:57.248Z,35.17
2022-07-27T01:25:05.060Z,35.13
2022-07-27T01:26:16.898Z,35.20
2022-07-27T01:29:06.584Z,34.94
2022-07-27T01:30:34.357Z,34.91
2022-07-27T01:31:43.127Z,34.84
2022-07-27T01:32:53.251Z,34.88
2022-07-27T01:34:05.139Z,34.70
2022-07-27T01:35:14.712Z,34.64
2022-07-27T01:36:22.390Z,34.74
2022-07-27T01:37:30.786Z,34.71
2022-07-27T01:38:38.569Z,34.60
2022-07-27T01:39:46.819Z,34.56
2022-07-27T01:40:55.410Z,34.59
2022-07-27T01:42:04.084Z,34.74
2022-07-27T01:43:18.020Z,34.79
2022-07-27T01:44:33.810Z,34.81
2022-07-27T01:46:01.452Z,34.81
2022-07-27T01:47:29.325Z,34.76
2022-07-27T01:48:47.603Z,34.68
2022-07-27T01:49:56.435Z,34.58
2022-07-27T01:51:11.953Z,34.53
2022-07-27T01:52:21.836Z,34.41
2022-07-27T01:53:48.576Z,34.25
2022-07-27T01:55:02.508Z,34.23
2022-07-27T01:56:44.400Z,34.13
2022-07-27T01:59:45.730Z,33.69
2022-07-27T02:00:58.746Z,33.72
2022-07-27T02:02:12.796Z,33.72
2022-07-27T02:03:23.509Z,33.59
2022-07-27T02:04:55.058Z,33.50
2022-07-27T02:06:08.142Z,33.43
2022-07-27T02:07:20.575Z,33.28
2022-07-27T02:08:28.908Z,33.21
2022-07-27T02:09:39.574Z,33.21
2022-07-27T02:11:11.239Z,33.11
2022-07-27T02:12:53.389Z,33.04
2022-07-27T02:14:28.938Z,32.96
2022-07-27T02:15:54.664Z,32.86
2022-07-27T02:17:06.119Z,32.70
2022-07-27T02:18:26.779Z,32.52
2022-07-27T02:19:56.296Z,32.29
2022-07-27T02:21:07.973Z,32.11
2022-07-27T02:24:18.581Z,31.72
2022-07-27T02:25:26.162Z,31.60
2022-07-27T02:26:36.969Z,31.44
2022-07-27T02:27:48.386Z,31.27
2022-07-27T02:28:58.116Z,31.14
2022-07-27T02:30:08.718Z,31.00
2022-07-27T02:31:27.070Z,30.85
2022-07-27T02:32:56.031Z,30.54
2022-07-27T02:34:07.187Z,30.31
2022-07-27T02:35:20.429Z,30.14
2022-07-27T02:38:53.842Z,29.68
2022-07-27T02:40:44.390Z,29.50
2022-07-27T02:41:53.685Z,29.21
2022-07-27T02:43:16.102Z,29.03
2022-07-27T02:44:46.078Z,28.80
2022-07-27T02:45:55.087Z,28.64
2022-07-27T02:47:15.708Z,28.49
2022-07-27T02:48:32.962Z,28.36
2022-07-27T02:49:45.288Z,28.25
2022-07-27T02:50:53.529Z,28.14
2022-07-27T02:52:01.517Z,28.05
2022-07-27T02:53:13.072Z,27.94
2022-07-27T02:54:25.829Z,27.85
2022-07-27T02:55:33.143Z,27.77
2022-07-27T02:56:40.543Z,27.70
2022-07-27T02:57:50.888Z,27.62
2022-07-27T02:59:05.014Z,27.53
2022-07-27T03:00:18.626Z,27.44
2022-07-27T03:01:26.499Z,27.35
2022-07-27T03:02:34.046Z,27.29
2022-07-27T03:03:43.796Z,27.23
2022-07-27T03:04:53.008Z,27.16
2022-07-27T03:06:03.983Z,27.09
2022-07-27T03:07:14.647Z,27.03
2022-07-27T03:08:23.637Z,26.97
2022-07-27T03:09:33.342Z,26.90
2022-07-27T03:10:48.698Z,26.84
2022-07-27T03:11:58.846Z,26.77
2022-07-27T03:13:08.927Z,26.69
2022-07-27T03:14:16.803Z,26.65
2022-07-27T03:15:26.873Z,26.60
2022-07-27T03:16:34.701Z,26.53
2022-07-27T03:17:42.399Z,26.48
2022-07-27T03:18:53.405Z,26.44
2022-07-27T03:20:03.640Z,26.38
2022-07-27T03:21:14.556Z,26.34
2022-07-27T03:22:24.641Z,26.30
2022-07-27T03:23:32.023Z,26.26
2022-07-27T03:24:41.401Z,26.22
2022-07-27T03:25:51.171Z,26.17
2022-07-27T03:27:00.031Z,26.11
2022-07-27T03:28:08.973Z,26.08
2022-07-27T03:29:16.648Z,26.05
2022-07-27T03:30:25.245Z,26.01
2022-07-27T03:31:34.942Z,25.97
2022-07-27T03:32:50.948Z,25.93
2022-07-27T03:34:03.257Z,25.90
2022-07-27T03:35:25.170Z,25.84
2022-07-27T03:36:42.226Z,25.81
2022-07-27T03:37:50.130Z,25.77
2022-07-27T03:39:17.130Z,25.74
2022-07-27T03:40:27.304Z,25.68
2022-07-27T03:41:35.429Z,25.66
2022-07-27T03:42:46.499Z,25.62
2022-07-27T03:43:57.206Z,25.59
2022-07-27T03:45:10.557Z,25.55
2022-07-27T03:46:19.832Z,25.51
2022-07-27T03:47:31.600Z,25.46
2022-07-27T03:48:41.107Z,25.43
2022-07-27T03:49:50.303Z,25.38
2022-07-27T03:51:00.053Z,25.36
2022-07-27T03:52:17.638Z,25.32
2022-07-27T03:53:49.886Z,25.26
2022-07-27T03:54:59.339Z,25.22
2022-07-27T03:56:24.964Z,25.18
2022-07-27T03:57:43.493Z,25.14
2022-07-27T03:59:04.993Z,25.11
2022-07-27T04:04:30.256Z,24.90
2022-07-27T04:05:45.347Z,24.86
2022-07-27T04:07:11.372Z,24.83
2022-07-27T04:08:37.105Z,24.81
2022-07-27T04:16:48.031Z,24.62
2022-07-27T04:18:28.008Z,24.56
2022-07-27T04:19:38.368Z,24.53
2022-07-27T04:20:46.603Z,24.52
2022-07-27T04:21:57.654Z,24.51
2022-07-27T04:23:05.918Z,24.49
2022-07-27T04:24:13.712Z,24.48
2022-07-27T04:25:21.794Z,24.47
2022-07-27T04:26:30.654Z,24.45
2022-07-27T04:27:40.555Z,24.42
2022-07-27T04:28:52.116Z,24.41
2022-07-27T04:30:08.281Z,24.39
2022-07-27T04:31:18.801Z,24.38
2022-07-27T04:32:26.257Z,24.36
2022-07-27T04:33:33.990Z,24.33
2022-07-27T04:34:40.845Z,24.31
2022-07-27T04:35:48.526Z,24.29
2022-07-27T04:36:57.126Z,24.27
2022-07-27T04:38:04.238Z,24.25
2022-07-27T04:39:11.780Z,24.23
2022-07-27T04:46:13.165Z,24.12
2022-07-27T04:47:28.157Z,24.09
2022-07-27T04:48:48.758Z,24.07
2022-07-27T04:49:57.766Z,24.04
2022-07-27T04:51:06.484Z,24.00
2022-07-27T04:52:17.450Z,23.95
2022-07-27T04:53:25.649Z,23.91
2022-07-27T04:54:33.084Z,23.87
2022-07-27T04:55:43.634Z,23.83
2022-07-27T04:56:51.038Z,23.80
2022-07-27T04:57:58.466Z,23.76
2022-07-27T04:59:07.091Z,23.72
2022-07-27T05:00:17.488Z,23.70
2022-07-27T05:01:30.331Z,23.67
2022-07-27T05:02:42.411Z,23.63
2022-07-27T05:03:50.390Z,23.60
2022-07-27T05:05:01.076Z,23.54
2022-07-27T05:06:09.615Z,23.49
2022-07-27T05:07:16.977Z,23.43
2022-07-27T05:08:24.688Z,23.39
2022-07-27T05:09:35.589Z,23.34
2022-07-27T05:10:43.133Z,23.30
2022-07-27T05:11:51.455Z,23.25
2022-07-27T05:12:59.956Z,23.21
2022-07-27T05:14:13.317Z,23.18
2022-07-27T05:15:22.452Z,23.14
2022-07-27T05:16:29.941Z,23.12
2022-07-27T05:17:37.661Z,23.10
2022-07-27T05:18:47.401Z,23.07
2022-07-27T05:19:54.827Z,23.04
2022-07-27T05:21:04.036Z,23.00
2022-07-27T05:22:12.093Z,22.97
2022-07-27T05:23:19.020Z,22.91
2022-07-27T05:24:27.279Z,22.83
2022-07-27T05:25:34.593Z,22.84
2022-07-27T05:26:42.088Z,22.83
2022-07-27T05:27:54.019Z,22.80
2022-07-27T05:29:02.269Z,22.78
2022-07-27T05:30:10.812Z,22.75
2022-07-27T05:31:20.740Z,22.73
2022-07-27T05:32:28.118Z,22.71
2022-07-27T05:33:36.303Z,22.69
2022-07-27T05:34:47.472Z,22.66
2022-07-27T05:35:55.043Z,22.63
2022-07-27T05:37:02.415Z,22.59
2022-07-27T05:38:09.722Z,22.58
2022-07-27T05:39:17.909Z,22.57
2022-07-27T05:40:26.246Z,22.57
2022-07-27T05:41:33.429Z,22.55
2022-07-27T05:42:46.374Z,22.55
2022-07-27T05:43:54.074Z,22.53
2022-07-27T05:45:04.801Z,22.49
2022-07-27T05:46:15.209Z,22.47
2022-07-27T05:47:22.757Z,22.44
2022-07-27T05:48:30.418Z,22.43
2022-07-27T05:49:37.918Z,22.42
2022-07-27T05:50:45.248Z,22.40
2022-07-27T05:51:53.559Z,22.38
2022-07-27T05:53:03.427Z,22.37
2022-07-27T05:54:12.139Z,22.34
2022-07-27T05:55:21.368Z,22.31
2022-07-27T05:56:29.628Z,22.30
2022-07-27T05:57:36.829Z,22.27
2022-07-27T05:58:44.706Z,22.24
2022-07-27T05:59:55.562Z,22.21
2022-07-27T06:01:02.988Z,22.16
2022-07-27T06:02:10.521Z,22.12
2022-07-27T06:03:18.323Z,22.10
2022-07-27T06:04:26.637Z,22.07
2022-07-27T06:05:33.696Z,22.06
2022-07-27T06:06:59.980Z,22.04
2022-07-27T06:08:11.128Z,22.02
2022-07-27T06:09:18.807Z,22.02
2022-07-27T06:10:29.033Z,22.01
2022-07-27T06:11:36.219Z,21.98
2022-07-27T06:12:46.087Z,21.96
2022-07-27T06:13:54.264Z,21.96
2022-07-27T06:15:02.465Z,21.92
2022-07-27T06:16:12.770Z,21.87
2022-07-27T06:17:22.027Z,21.85
2022-07-27T06:18:29.764Z,21.84
2022-07-27T06:19:40.880Z,21.82
2022-07-27T06:20:48.136Z,21.81
2022-07-27T06:21:55.407Z,21.79
2022-07-27T06:23:08.231Z,21.77
2022-07-27T06:24:19.412Z,21.75
2022-07-27T06:25:34.403Z,21.74
2022-07-27T06:26:46.416Z,21.71
2022-07-27T06:27:55.191Z,21.69
2022-07-27T06:29:09.790Z,21.64
2022-07-27T06:30:19.635Z,21.62
2022-07-27T06:31:35.203Z,21.59
2022-07-27T06:32:47.696Z,21.55
2022-07-27T06:33:58.540Z,21.51
2022-07-27T06:35:10.138Z,21.47
2022-07-27T06:36:19.440Z,21.43
2022-07-27T06:37:26.982Z,21.40
2022-07-27T06:38:37.730Z,21.36
2022-07-27T06:39:44.967Z,21.33
2022-07-27T06:40:54.165Z,21.31
2022-07-27T06:42:01.252Z,21.29
2022-07-27T06:43:13.463Z,21.26
2022-07-27T06:44:21.019Z,21.23
2022-07-27T06:45:28.767Z,21.21
2022-07-27T06:46:35.896Z,21.20
2022-07-27T06:47:49.762Z,21.16
2022-07-27T06:48:59.806Z,21.14
2022-07-27T06:50:07.506Z,21.11
2022-07-27T06:51:17.715Z,21.09
2022-07-27T06:52:24.884Z,21.06
2022-07-27T06:53:36.189Z,21.03
2022-07-27T06:54:44.898Z,21.01
2022-07-27T06:55:53.196Z,20.99
2022-07-27T06:57:04.608Z,20.97
2022-07-27T06:58:14.302Z,20.95
2022-07-27T06:59:22.304Z,20.93
2022-07-27T07:00:32.637Z,20.92
2022-07-27T07:01:39.784Z,20.90
2022-07-27T07:02:59.320Z,20.89
2022-07-27T07:04:09.635Z,20.86
2022-07-27T07:05:20.597Z,20.82
2022-07-27T07:06:28.295Z,20.79
2022-07-27T07:07:35.931Z,20.77
2022-07-27T07:08:43.525Z,20.76
2022-07-27T07:09:51.894Z,20.76
2022-07-27T07:10:59.992Z,20.76
2022-07-27T07:12:07.955Z,20.75
2022-07-27T07:13:15.194Z,20.74
2022-07-27T07:14:22.634Z,20.73
2022-07-27T07:15:30.909Z,20.73
2022-07-27T07:16:39.654Z,20.71
2022-07-27T07:17:47.170Z,20.68
2022-07-27T07:18:56.449Z,20.65
2022-07-27T07:20:03.756Z,20.62
2022-07-27T07:21:12.640Z,20.59
2022-07-27T07:22:19.768Z,20.57
2022-07-27T07:23:30.457Z,20.56
2022-07-27T07:24:40.079Z,20.54
2022-07-27T07:25:47.430Z,20.53
2022-07-27T07:26:55.848Z,20.51
2022-07-27T07:28:02.702Z,20.50
2022-07-27T07:29:13.189Z,20.49
2022-07-27T07:30:22.754Z,20.48
2022-07-27T07:31:30.281Z,20.46
2022-07-27T07:32:40.595Z,20.45
2022-07-27T07:33:49.023Z,20.43
2022-07-27T07:34:57.673Z,20.42
2022-07-27T07:36:13.591Z,20.41
2022-07-27T07:37:23.812Z,20.41
2022-07-27T07:38:44.097Z,20.40
2022-07-27T07:39:54.036Z,20.40
2022-07-27T07:41:04.224Z,20.40
2022-07-27T07:42:11.518Z,20.41
2022-07-27T07:43:19.106Z,20.40
2022-07-27T07:44:30.097Z,20.39
2022-07-27T07:45:50.898Z,20.38
2022-07-27T07:47:00.766Z,20.37
2022-07-27T07:48:09.322Z,20.36
2022-07-27T07:49:37.698Z,20.37
2022-07-27T07:50:51.954Z,20.34
2022-07-27T07:52:01.906Z,20.32
2022-07-27T07:53:11.705Z,20.31
2022-07-27T07:54:25.143Z,20.27
2022-07-27T07:55:32.200Z,20.25
2022-07-27T07:56:39.422Z,20.22
2022-07-27T07:57:47.667Z,20.19
2022-07-27T07:58:58.227Z,20.16
2022-07-27T08:00:06.901Z,20.15
2022-07-27T08:01:20.838Z,20.12
2022-07-27T08:02:30.191Z,20.10
2022-07-27T08:03:40.758Z,20.08
2022-07-27T08:04:48.439Z,20.07
2022-07-27T08:05:55.501Z,20.07
2022-07-27T08:07:02.738Z,20.05
2022-07-27T08:08:09.893Z,20.01
2022-07-27T08:09:18.834Z,19.99
2022-07-27T08:10:27.513Z,19.96
2022-07-27T08:11:37.889Z,19.95
2022-07-27T08:12:48.739Z,19.93
2022-07-27T08:13:56.326Z,19.92
2022-07-27T08:15:07.063Z,19.91
2022-07-27T08:16:14.580Z,19.92
2022-07-27T08:17:22.232Z,19.88
2022-07-27T08:18:31.097Z,19.85
2022-07-27T08:19:40.409Z,19.82
2022-07-27T08:20:48.573Z,19.80
2022-07-27T08:21:56.516Z,19.79
2022-07-27T08:23:03.610Z,19.78
2022-07-27T08:24:12.697Z,19.77
2022-07-27T08:25:19.748Z,19.78
2022-07-27T08:26:30.033Z,19.79
2022-07-27T08:27:40.499Z,19.79
2022-07-27T08:28:48.297Z,19.79
2022-07-27T08:29:58.774Z,19.80
2022-07-27T08:31:15.923Z,19.80
2022-07-27T08:32:31.409Z,19.78
2022-07-27T08:33:41.565Z,19.78
2022-07-27T08:34:51.765Z,19.79
2022-07-27T08:36:00.834Z,19.77
2022-07-27T08:37:12.040Z,19.74
2022-07-27T08:38:28.719Z,19.73
2022-07-27T08:41:08.661Z,19.68
2022-07-27T08:42:15.616Z,19.65
2022-07-27T08:43:25.262Z,19.63
2022-07-27T08:44:33.457Z,19.60
2022-07-27T08:45:42.950Z,19.58
2022-07-27T08:46:53.083Z,19.56
2022-07-27T08:48:04.330Z,19.51
2022-07-27T08:49:11.862Z,19.49
2022-07-27T08:50:26.449Z,19.48
2022-07-27T08:51:37.169Z,19.46
2022-07-27T08:52:47.752Z,19.45
2022-07-27T08:53:55.196Z,19.43
2022-07-27T08:55:02.654Z,19.42
2022-07-27T08:56:11.030Z,19.42
2022-07-27T08:57:20.888Z,19.41
2022-07-27T08:58:30.052Z,19.39
2022-07-27T08:59:37.913Z,19.38
2022-07-27T09:00:52.248Z,19.38
2022-07-27T09:01:59.698Z,19.36
2022-07-27T09:03:19.801Z,19.36
2022-07-27T09:04:34.849Z,19.35
2022-07-27T09:05:51.223Z,19.34
2022-07-27T09:07:00.235Z,19.33
2022-07-27T09:08:16.278Z,19.32
2022-07-27T09:09:27.711Z,19.33
2022-07-27T09:10:37.637Z,19.32
2022-07-27T09:11:47.168Z,19.31
2022-07-27T09:12:57.143Z,19.31
2022-07-27T09:14:08.446Z,19.30
2022-07-27T09:15:19.625Z,19.28
2022-07-27T09:17:02.944Z,19.28
2022-07-27T09:18:03.394Z,19.27
2022-07-27T09:19:12.607Z,19.26
2022-07-27T09:20:23.745Z,19.26
2022-07-27T09:21:31.227Z,19.25
2022-07-27T09:22:48.071Z,19.25
2022-07-27T09:24:44.279Z,19.26
2022-07-27T09:26:03.652Z,19.23
2022-07-27T09:27:18.044Z,19.23
2022-07-27T09:28:31.855Z,19.23
2022-07-27T09:29:39.180Z,19.22
2022-07-27T09:30:49.692Z,19.21
2022-07-27T09:31:58.095Z,19.21
2022-07-27T09:33:08.644Z,19.21
2022-07-27T09:34:35.567Z,19.20
2022-07-27T09:35:42.863Z,19.20
2022-07-27T09:36:57.794Z,19.19
2022-07-27T09:38:24.011Z,19.18
2022-07-27T09:39:31.461Z,19.17
2022-07-27T09:40:38.880Z,19.18
2022-07-27T09:41:47.761Z,19.17
2022-07-27T09:43:52.067Z,19.18
2022-07-27T09:44:44.829Z,19.17
2022-07-27T09:45:55.098Z,19.18
2022-07-27T09:47:03.745Z,19.18
2022-07-27T09:48:19.295Z,19.19
2022-07-27T09:49:39.160Z,19.20
2022-07-27T09:51:55.642Z,19.19
2022-07-27T09:52:39.161Z,19.20
2022-07-27T09:53:46.854Z,19.22
2022-07-27T09:54:55.459Z,19.24
2022-07-27T09:56:17.269Z,19.24
2022-07-27T09:57:27.528Z,19.26
2022-07-27T09:58:46.959Z,19.28
2022-07-27T10:00:11.752Z,19.29
2022-07-27T10:01:49.918Z,19.31
2022-07-27T10:03:03.307Z,19.33
2022-07-27T10:04:10.769Z,19.33
2022-07-27T10:05:23.892Z,19.34
2022-07-27T10:06:47.794Z,19.34
2022-07-27T10:08:01.951Z,19.35
2022-07-27T10:09:10.446Z,19.37
2022-07-27T10:10:18.194Z,19.38
2022-07-27T10:11:25.985Z,19.40
2022-07-27T10:12:35.134Z,19.42
2022-07-27T10:13:44.290Z,19.42
2022-07-27T10:14:52.243Z,19.42
2022-07-27T10:16:00.395Z,19.42
2022-07-27T10:17:09.303Z,19.42
2022-07-27T10:18:32.411Z,19.42
2022-07-27T10:19:47.992Z,19.41
2022-07-27T10:20:55.515Z,19.41
2022-07-27T10:22:02.898Z,19.43
2022-07-27T10:23:18.995Z,19.42
2022-07-27T10:24:27.337Z,19.43
2022-07-27T10:25:38.093Z,19.46
2022-07-27T10:26:46.778Z,19.48
2022-07-27T10:28:16.090Z,19.47
2022-07-27T10:29:27.018Z,19.46
2022-07-27T10:30:35.898Z,19.46
2022-07-27T10:31:57.855Z,19.44
2022-07-27T10:33:35.097Z,19.42
2022-07-27T10:34:46.194Z,19.42
2022-07-27T10:35:53.565Z,19.43
2022-07-27T10:37:04.371Z,19.42
2022-07-27T10:38:18.019Z,19.41
2022-07-27T10:39:39.005Z,19.39
2022-07-27T10:40:46.350Z,19.36
2022-07-27T10:41:53.418Z,19.33
2022-07-27T10:43:20.751Z,19.31
2022-07-27T10:44:31.232Z,19.29
2022-07-27T10:45:50.190Z,19.25
2022-07-27T10:47:04.769Z,19.21
2022-07-27T10:48:20.416Z,19.18
2022-07-27T10:49:40.402Z,19.16
2022-07-27T10:50:50.436Z,19.13
2022-07-27T10:52:01.594Z,19.10
2022-07-27T10:53:11.175Z,19.08
2022-07-27T10:54:28.337Z,19.07
2022-07-27T10:55:45.657Z,19.04
2022-07-27T10:56:53.811Z,19.01
2022-07-27T10:58:13.407Z,19.00
2022-07-27T11:00:07.486Z,19.00
2022-07-27T11:01:15.966Z,18.97
2022-07-27T11:02:40.040Z,18.96
2022-07-27T11:03:52.512Z,18.94
2022-07-27T11:05:01.768Z,18.94
2022-07-27T11:07:58.186Z,18.93
2022-07-27T11:10:48.443Z,18.90
2022-07-27T11:11:55.882Z,18.90
2022-07-27T11:13:09.679Z,18.89
2022-07-27T11:14:30.079Z,18.87
2022-07-27T11:15:40.769Z,18.86
2022-07-27T11:16:55.504Z,18.84
2022-07-27T11:18:07.471Z,18.82
2022-07-27T11:19:17.993Z,18.82
2022-07-27T11:20:31.321Z,18.81
2022-07-27T11:21:40.238Z,18.80
2022-07-27T11:23:48.718Z,18.80
2022-07-27T11:24:19.377Z,18.80
2022-07-27T11:25:26.260Z,18.79
2022-07-27T11:26:38.939Z,18.78
2022-07-27T11:27:52.843Z,18.78
2022-07-27T11:29:01.747Z,18.76
2022-07-27T11:30:29.652Z,18.76
2022-07-27T11:31:54.685Z,18.76
2022-07-27T11:33:06.118Z,18.73
2022-07-27T11:34:15.552Z,18.74
2022-07-27T11:35:26.790Z,18.74
2022-07-27T11:36:41.022Z,18.76
2022-07-27T11:38:04.155Z,18.77
2022-07-27T11:39:43.659Z,18.77
2022-07-27T11:40:58.078Z,18.78
2022-07-27T11:42:20.880Z,18.78
2022-07-27T11:43:38.168Z,18.78
2022-07-27T11:44:47.519Z,18.79
2022-07-27T11:45:56.220Z,18.80
2022-07-27T11:47:04.906Z,18.81
2022-07-27T11:48:12.205Z,18.81
2022-07-27T11:49:32.300Z,18.82
2022-07-27T11:50:59.772Z,18.83
2022-07-27T11:52:09.609Z,18.84
2022-07-27T11:53:22.616Z,18.85
2022-07-27T11:54:45.654Z,18.86
2022-07-27T11:55:52.931Z,18.87
2022-07-27T11:57:04.216Z,18.88
2022-07-27T11:58:11.997Z,18.89
2022-07-27T11:59:23.680Z,18.90
2022-07-27T12:00:43.420Z,18.91
2022-07-27T12:01:55.908Z,18.91
2022-07-27T12:03:03.353Z,18.91
2022-07-27T12:04:30.377Z,18.92
2022-07-27T12:05:39.078Z,18.91
2022-07-27T12:06:56.084Z,18.88
2022-07-27T12:08:06.351Z,18.87
2022-07-27T12:09:16.073Z,18.86
2022-07-27T12:10:24.916Z,18.84
2022-07-27T12:11:55.551Z,18.84
2022-07-27T12:13:05.997Z,18.82
2022-07-27T12:14:15.140Z,18.81
2022-07-27T12:16:56.261Z,18.79
2022-07-27T12:18:05.000Z,18.78
2022-07-27T12:19:22.877Z,18.76
2022-07-27T12:20:36.867Z,18.75
2022-07-27T12:21:53.522Z,18.73
2022-07-27T12:23:09.310Z,18.72
2022-07-27T12:24:18.561Z,18.70
2022-07-27T12:25:30.958Z,18.70
2022-07-27T12:26:38.928Z,18.69
2022-07-27T12:28:13.769Z,18.68
2022-07-27T12:29:23.543Z,18.65
2022-07-27T12:30:34.636Z,18.63
2022-07-27T12:31:49.993Z,18.62
2022-07-27T12:32:57.573Z,18.61
2022-07-27T12:34:07.699Z,18.63
2022-07-27T12:35:29.504Z,18.63
2022-07-27T12:36:43.999Z,18.62
2022-07-27T12:37:58.940Z,18.61
2022-07-27T12:39:07.733Z,18.60
2022-07-27T12:40:22.655Z,18.61
2022-07-27T12:41:39.606Z,18.61
2022-07-27T12:42:46.634Z,18.60
2022-07-27T12:44:16.902Z,18.59
2022-07-27T12:45:30.816Z,18.55
2022-07-27T12:47:21.673Z,18.53
2022-07-27T12:48:42.937Z,18.49
2022-07-27T12:50:20.316Z,18.47
2022-07-27T12:51:28.287Z,18.46
2022-07-27T12:52:36.885Z,18.44
2022-07-27T12:53:45.787Z,18.42
2022-07-27T12:54:53.305Z,18.40
2022-07-27T12:56:03.560Z,18.39
2022-07-27T12:57:10.882Z,18.40
2022-07-27T12:58:18.540Z,18.41
2022-07-27T12:59:26.511Z,18.41
2022-07-27T13:00:34.414Z,18.42
2022-07-27T13:01:41.958Z,18.44
2022-07-27T13:02:50.172Z,18.46
2022-07-27T13:03:57.895Z,18.49
2022-07-27T13:05:06.932Z,18.49
2022-07-27T13:06:17.272Z,18.51
2022-07-27T13:07:25.007Z,18.52
2022-07-27T13:08:35.189Z,18.54
2022-07-27T13:10:01.970Z,18.55
2022-07-27T13:11:13.686Z,18.56
2022-07-27T13:12:25.417Z,18.58
2022-07-27T13:13:32.455Z,18.59
2022-07-27T13:14:43.417Z,18.59
2022-07-27T13:15:52.315Z,18.60
2022-07-27T13:17:00.076Z,18.62
2022-07-27T13:18:08.302Z,18.64
2022-07-27T13:19:16.770Z,18.66
2022-07-27T13:20:25.907Z,18.69
2022-07-27T13:21:35.083Z,18.70
2022-07-27T13:22:42.364Z,18.72
2022-07-27T13:23:49.668Z,18.72
2022-07-27T13:24:59.155Z,18.74
2022-07-27T13:26:06.404Z,18.78
2022-07-27T13:27:13.830Z,18.83
2022-07-27T13:28:24.013Z,18.88
2022-07-27T13:29:34.257Z,18.93
2022-07-27T13:30:42.004Z,18.98
2022-07-27T13:31:57.098Z,19.02
2022-07-27T13:33:08.575Z,19.06
2022-07-27T13:34:17.257Z,19.08
2022-07-27T13:35:27.113Z,19.09
2022-07-27T13:36:37.430Z,19.10
2022-07-27T13:37:46.846Z,19.13
2022-07-27T13:38:54.722Z,19.16
2022-07-27T13:40:02.236Z,19.19
2022-07-27T13:41:11.012Z,19.24
2022-07-27T13:42:18.000Z,19.30
2022-07-27T13:43:26.136Z,19.41
2022-07-27T13:45:00.990Z,19.56
2022-07-27T13:46:04.889Z,19.77
2022-07-27T13:47:12.176Z,19.90
2022-07-27T13:48:19.565Z,19.97
2022-07-27T13:49:27.099Z,20.06
2022-07-27T13:50:35.854Z,20.15
2022-07-27T13:51:44.705Z,20.27
2022-07-27T13:52:55.021Z,20.39
2022-07-27T13:54:03.657Z,20.54
2022-07-27T13:55:13.835Z,20.69
2022-07-27T13:56:23.810Z,20.85
2022-07-27T13:57:31.955Z,21.05
2022-07-27T13:58:42.283Z,21.25
2022-07-27T13:59:49.540Z,21.43
2022-07-27T14:01:03.997Z,21.62
2022-07-27T14:02:20.668Z,21.82
2022-07-27T14:03:34.658Z,22.04
2022-07-27T14:04:42.057Z,22.23
2022-07-27T14:05:54.745Z,22.36
2022-07-27T14:07:02.667Z,22.46
2022-07-27T14:08:12.103Z,22.53
2022-07-27T14:09:23.334Z,22.60
2022-07-27T14:10:33.290Z,22.69
2022-07-27T14:11:41.152Z,22.77
2022-07-27T14:13:08.337Z,22.91
2022-07-27T14:14:17.287Z,23.05
2022-07-27T14:15:34.229Z,23.21
2022-07-27T14:17:02.856Z,23.32
2022-07-27T14:18:14.933Z,23.40
2022-07-27T14:19:23.694Z,23.48
2022-07-27T14:20:33.896Z,23.59
2022-07-27T14:21:43.203Z,23.73
2022-07-27T14:22:53.067Z,23.82
2022-07-27T14:24:05.679Z,23.90
2022-07-27T14:25:13.147Z,23.94
2022-07-27T14:26:23.720Z,23.96
2022-07-27T14:27:37.560Z,24.00
2022-07-27T14:28:49.026Z,24.10
2022-07-27T14:29:59.384Z,24.27
2022-07-27T14:31:09.319Z,24.43
2022-07-27T14:32:17.774Z,24.54
2022-07-27T14:33:33.259Z,24.61
2022-07-27T14:34:50.964Z,24.72
2022-07-27T14:35:59.853Z,24.80
2022-07-27T14:37:08.056Z,24.90
2022-07-27T14:38:29.719Z,25.03
2022-07-27T14:39:43.555Z,25.07
2022-07-27T14:40:52.432Z,25.09
2022-07-27T14:42:01.400Z,25.19
2022-07-27T14:43:09.910Z,25.36
2022-07-27T14:44:21.729Z,25.50
2022-07-27T14:45:44.048Z,25.61
2022-07-27T14:46:54.467Z,25.71
2022-07-27T14:48:02.932Z,25.73
2022-07-27T14:49:10.350Z,25.75
2022-07-27T14:50:20.806Z,25.82
2022-07-27T14:51:28.643Z,25.82
2022-07-27T14:52:38.861Z,25.86
2022-07-27T14:53:46.454Z,25.85
2022-07-27T14:54:58.304Z,25.76
2022-07-27T14:56:05.284Z,25.72
2022-07-27T14:57:13.001Z,25.68
2022-07-27T14:58:20.864Z,25.56
2022-07-27T14:59:29.592Z,25.40
2022-07-27T15:00:38.434Z,25.30
2022-07-27T15:01:46.983Z,25.11
2022-07-27T15:02:55.824Z,25.01
2022-07-27T15:04:04.923Z,25.00
2022-07-27T15:05:12.363Z,25.07
2022-07-27T15:06:22.247Z,25.14
2022-07-27T15:07:31.455Z,25.20
2022-07-27T15:08:39.186Z,25.29
2022-07-27T15:09:48.072Z,25.40
2022-07-27T15:10:55.421Z,25.55
2022-07-27T15:12:05.805Z,25.67
2022-07-27T15:13:15.081Z,25.72
2022-07-27T15:14:25.589Z,25.79
2022-07-27T15:15:33.146Z,25.92
2022-07-27T15:16:42.215Z,25.97
2022-07-27T15:17:49.592Z,25.99
2022-07-27T15:18:59.033Z,26.10
2022-07-27T15:20:08.085Z,26.02
2022-07-27T15:21:15.559Z,25.82
2022-07-27T15:22:23.513Z,25.75
2022-07-27T15:23:35.722Z,25.52
2022-07-27T15:24:44.967Z,25.29
2022-07-27T15:25:51.873Z,25.13
2022-07-27T15:27:00.627Z,24.96
2022-07-27T15:28:08.410Z,24.88
2022-07-27T15:29:15.993Z,24.80
2022-07-27T15:30:23.622Z,24.74
2022-07-27T15:31:31.591Z,24.69
2022-07-27T15:32:39.839Z,24.61
2022-07-27T15:33:48.873Z,24.47
2022-07-27T15:34:56.371Z,24.35
2022-07-27T15:36:03.762Z,24.37
2022-07-27T15:37:11.639Z,24.34
2022-07-27T15:38:20.332Z,24.28
2022-07-27T15:39:28.455Z,24.22
2022-07-27T15:40:39.185Z,24.12
2022-07-27T15:41:48.439Z,24.02
2022-07-27T15:42:55.930Z,23.94
2022-07-27T15:44:02.874Z,23.87
2022-07-27T15:45:10.787Z,23.83
2022-07-27T15:46:27.554Z,23.80
2022-07-27T15:47:36.195Z,23.80
2022-07-27T15:48:49.574Z,23.81
2022-07-27T15:49:57.147Z,23.84
2022-07-27T15:51:06.933Z,23.85
2022-07-27T15:52:22.377Z,23.91
2022-07-27T15:53:31.309Z,23.97
2022-07-27T15:54:45.144Z,24.01
2022-07-27T15:55:55.100Z,24.07
2022-07-27T15:57:02.469Z,24.16
2022-07-27T15:58:12.618Z,24.25
2022-07-27T15:59:21.523Z,24.33
2022-07-27T16:00:28.995Z,24.39
2022-07-27T16:01:37.917Z,24.42
2022-07-27T16:02:46.117Z,24.43
2022-07-27T16:03:54.766Z,24.48